createdAt,value
2023-04-18T00:00:02.418Z,29.33
2023-04-18T00:02:39.990Z,29.70
2023-04-18T00:05:07.863Z,31.75
2023-04-18T00:07:37.566Z,32.30
2023-04-18T00:10:05.401Z,32.92
2023-04-18T00:12:34.633Z,28.60
2023-04-18T00:15:02.413Z,31.23
2023-04-18T00:17:30.451Z,30.20
2023-04-18T00:19:58.356Z,26.83
2023-04-18T00:22:25.992Z,28.30
2023-04-18T00:24:53.107Z,29.17
2023-04-18T00:27:20.628Z,28.80
2023-04-18T00:29:47.679Z,28.88
2023-04-18T00:32:16.917Z,31.08
2023-04-18T00:34:43.858Z,28.42
2023-04-18T00:37:12.915Z,29.17
2023-04-18T00:39:42.137Z,30.30
2023-04-18T00:42:09.130Z,28.40
2023-04-18T00:44:36.143Z,28.30
2023-04-18T00:47:03.107Z,29.90
2023-04-18T00:49:30.468Z,29.00
2023-04-18T00:51:57.422Z,29.90
2023-04-18T00:54:24.445Z,27.75
2023-04-18T00:56:51.520Z,30.48
2023-04-18T00:59:19.065Z,29.48
2023-04-18T01:01:46.344Z,32.63
2023-04-18T01:04:13.764Z,32.17
2023-04-18T01:06:41.793Z,31.00
2023-04-18T01:09:08.802Z,30.65
2023-04-18T01:11:36.097Z,30.88
2023-04-18T01:14:05.571Z,31.27
2023-04-18T01:16:37.208Z,32.13
2023-04-18T01:19:04.496Z,30.70
2023-04-18T01:21:33.979Z,31.52
2023-04-18T01:24:09.328Z,30.02
2023-04-18T01:26:36.408Z,32.95
2023-04-18T01:29:05.350Z,30.15
2023-04-18T01:31:38.694Z,27.85
2023-04-18T01:34:07.356Z,29.95
2023-04-18T01:36:36.082Z,30.85
2023-04-18T01:39:03.051Z,28.50
2023-04-18T01:41:32.789Z,28.23
2023-04-18T01:44:00.321Z,30.40
2023-04-18T01:46:27.922Z,34.13
2023-04-18T01:48:55.510Z,32.40
2023-04-18T01:51:22.522Z,31.63
2023-04-18T01:53:49.812Z,28.63
2023-04-18T01:56:16.885Z,29.08
2023-04-18T01:58:43.827Z,31.52
2023-04-18T02:01:12.550Z,30.08
2023-04-18T02:03:40.096Z,29.23
2023-04-18T02:06:07.638Z,29.10
2023-04-18T02:08:35.959Z,29.20
2023-04-18T02:11:05.255Z,27.73
2023-04-18T02:13:32.349Z,31.42
2023-04-18T02:15:59.321Z,29.83
2023-04-18T02:18:26.847Z,28.80
2023-04-18T02:20:53.815Z,28.23
2023-04-18T02:23:22.163Z,30.65
2023-04-18T02:25:49.240Z,26.23
2023-04-18T02:28:17.779Z,29.55
2023-04-18T02:30:45.008Z,30.70
2023-04-18T02:33:11.898Z,29.73
2023-04-18T02:35:38.884Z,27.88
2023-04-18T02:38:05.990Z,29.45
2023-04-18T02:40:32.988Z,29.67
2023-04-18T02:42:59.956Z,28.25
2023-04-18T02:45:26.848Z,30.42
2023-04-18T02:47:56.800Z,31.73
2023-04-18T02:50:24.870Z,30.17
2023-04-18T02:52:53.583Z,31.00
2023-04-18T02:55:22.578Z,30.73
2023-04-18T02:57:49.741Z,28.27
2023-04-18T03:00:36.130Z,29.88
2023-04-18T03:03:26.080Z,29.20
2023-04-18T03:06:00.476Z,30.63
2023-04-18T03:08:28.370Z,30.05
2023-04-18T03:10:56.320Z,28.15
2023-04-18T03:13:25.468Z,29.27
2023-04-18T03:15:52.501Z,29.15
2023-04-18T03:18:19.896Z,30.35
2023-04-18T03:20:47.146Z,29.95
2023-04-18T03:23:16.531Z,30.80
2023-04-18T03:25:43.888Z,28.65
2023-04-18T03:28:10.849Z,28.10
2023-04-18T03:30:37.962Z,25.83
2023-04-18T03:33:06.285Z,24.95
2023-04-18T03:35:33.725Z,27.02
2023-04-18T03:38:00.754Z,29.10
2023-04-18T03:40:30.817Z,28.65
2023-04-18T03:43:03.640Z,28.77
2023-04-18T03:45:31.296Z,30.67
2023-04-18T03:47:58.352Z,28.90
2023-04-18T03:50:25.997Z,28.15
2023-04-18T03:52:54.931Z,26.58
2023-04-18T03:55:22.296Z,26.08
2023-04-18T03:57:50.289Z,27.25
2023-04-18T04:00:25.827Z,28.00
2023-04-18T04:03:00.116Z,29.13
2023-04-18T04:05:27.394Z,30.30
2023-04-18T04:07:54.310Z,30.02
2023-04-18T04:10:21.412Z,29.23
2023-04-18T04:12:49.581Z,27.73
2023-04-18T04:15:16.810Z,30.70
2023-04-18T04:17:52.247Z,28.65
2023-04-18T04:20:24.211Z,26.92
2023-04-18T04:22:58.960Z,27.83
2023-04-18T04:25:29.811Z,25.63
2023-04-18T04:28:01.573Z,27.75
2023-04-18T04:30:30.022Z,28.38
2023-04-18T04:32:57.086Z,27.00
2023-04-18T04:35:24.053Z,27.90
2023-04-18T04:37:51.766Z,27.27
2023-04-18T04:40:30.847Z,27.38
2023-04-18T04:43:12.785Z,27.05
2023-04-18T04:45:41.559Z,27.67
2023-04-18T04:48:09.167Z,25.38
2023-04-18T04:50:37.082Z,23.65
2023-04-18T04:53:04.864Z,26.30
2023-04-18T04:55:32.765Z,25.08
2023-04-18T04:58:00.647Z,28.02
2023-04-18T05:00:52.544Z,28.58
2023-04-18T05:03:20.618Z,25.67
2023-04-18T05:05:47.809Z,26.85
2023-04-18T05:08:14.767Z,30.35
2023-04-18T05:10:43.296Z,28.17
2023-04-18T05:13:10.602Z,26.88
2023-04-18T05:15:37.637Z,28.15
2023-04-18T05:18:05.095Z,30.33
2023-04-18T05:20:32.154Z,29.40
2023-04-18T05:22:59.635Z,30.85
2023-04-18T05:25:26.947Z,27.08
2023-04-18T05:27:53.852Z,29.42
2023-04-18T05:30:20.792Z,26.92
2023-04-18T05:32:47.716Z,29.38
2023-04-18T05:35:14.716Z,29.08
2023-04-18T05:37:41.746Z,30.02
2023-04-18T05:40:09.242Z,29.40
2023-04-18T05:42:36.205Z,27.08
2023-04-18T05:45:03.383Z,29.67
2023-04-18T05:47:30.457Z,32.90
2023-04-18T05:49:57.465Z,28.02
2023-04-18T05:52:26.068Z,28.20
2023-04-18T05:54:53.298Z,29.40
2023-04-18T05:57:20.455Z,32.42
2023-04-18T05:59:47.467Z,28.73
2023-04-18T06:02:14.538Z,28.80
2023-04-18T06:04:42.207Z,27.85
2023-04-18T06:07:09.909Z,28.10
2023-04-18T06:09:37.037Z,30.10
2023-04-18T06:12:04.474Z,29.13
2023-04-18T06:14:31.411Z,31.80
2023-04-18T06:16:58.420Z,32.08
2023-04-18T06:19:25.613Z,28.50
2023-04-18T06:21:52.969Z,28.83
2023-04-18T06:24:20.168Z,30.88
2023-04-18T06:26:47.477Z,29.75
2023-04-18T06:29:14.590Z,31.13
2023-04-18T06:31:42.263Z,30.17
2023-04-18T06:34:09.451Z,31.92
2023-04-18T06:36:36.408Z,31.05
2023-04-18T06:39:03.963Z,29.63
2023-04-18T06:41:31.565Z,31.50
2023-04-18T06:46:28.375Z,30.60
2023-04-18T06:48:55.468Z,29.35
2023-04-18T06:51:22.374Z,29.00
2023-04-18T06:53:52.740Z,28.75
2023-04-18T06:56:22.962Z,28.75
2023-04-18T06:58:50.203Z,30.77
2023-04-18T07:01:17.179Z,30.52
2023-04-18T07:03:44.401Z,28.55
2023-04-18T07:06:11.401Z,28.50
2023-04-18T07:08:38.430Z,29.98
2023-04-18T07:11:06.493Z,28.85
2023-04-18T07:13:33.466Z,29.05
2023-04-18T07:16:01.382Z,30.48
2023-04-18T07:18:37.480Z,28.17
2023-04-18T07:21:09.108Z,29.02
2023-04-18T07:23:36.144Z,28.67
2023-04-18T07:26:05.418Z,25.88
2023-04-18T07:28:32.887Z,28.08
2023-04-18T07:31:01.286Z,27.27
2023-04-18T07:33:31.696Z,24.73
2023-04-18T07:35:58.775Z,24.65
2023-04-18T07:38:25.842Z,23.65
2023-04-18T07:40:59.469Z,25.02
2023-04-18T07:43:26.926Z,23.15
2023-04-18T07:45:54.098Z,24.10
2023-04-18T07:48:25.360Z,22.48
2023-04-18T07:50:52.391Z,21.33
2023-04-18T07:53:19.359Z,19.75
2023-04-18T07:55:46.710Z,20.15
2023-04-18T07:58:13.926Z,17.92
2023-04-18T08:00:42.629Z,21.45
2023-04-18T08:03:13.663Z,20.85
2023-04-18T08:05:41.655Z,19.95
2023-04-18T08:08:09.710Z,21.33
2023-04-18T08:10:36.754Z,18.58
2023-04-18T08:13:04.079Z,21.10
2023-04-18T08:15:32.778Z,18.23
2023-04-18T08:18:00.489Z,17.65
2023-04-18T08:20:27.563Z,18.05
2023-04-18T08:23:06.271Z,15.85
2023-04-18T08:25:37.089Z,16.73
2023-04-18T08:28:04.528Z,18.25
2023-04-18T08:30:31.658Z,19.23
2023-04-18T12:19:49.213Z,11.93
2023-04-18T12:22:16.917Z,12.68
2023-04-18T12:24:43.897Z,13.70
2023-04-18T12:27:12.236Z,13.30
2023-04-18T12:29:39.673Z,12.77
2023-04-18T12:32:06.835Z,12.63
2023-04-18T12:34:33.823Z,13.07
2023-04-18T12:37:01.016Z,13.57
2023-04-18T12:39:27.932Z,12.85
2023-04-18T12:41:54.946Z,12.27
2023-04-18T12:44:22.725Z,13.32
2023-04-18T12:46:49.759Z,12.88
2023-04-18T12:49:16.790Z,12.80
2023-04-18T12:51:43.726Z,10.40
2023-04-18T12:54:10.663Z,11.95
2023-04-18T12:56:37.688Z,11.90
2023-04-18T12:59:04.736Z,12.65
2023-04-18T13:01:31.831Z,15.10
2023-04-18T13:04:10.875Z,12.45
2023-04-18T13:06:40.003Z,12.43
2023-04-18T13:09:06.903Z,11.52
2023-04-18T13:11:33.876Z,13.65
2023-04-18T13:14:00.885Z,12.70
2023-04-18T13:16:27.936Z,11.02
2023-04-18T13:18:54.888Z,11.73
2023-04-18T13:21:25.003Z,10.13
2023-04-18T13:23:52.171Z,10.30
2023-04-18T13:26:19.211Z,11.13
2023-04-18T13:28:46.687Z,10.30
2023-04-18T13:31:15.672Z,11.00
2023-04-18T13:33:43.911Z,10.65
2023-04-18T13:36:11.386Z,10.18
2023-04-18T13:38:39.242Z,8.73
2023-04-18T13:41:12.143Z,9.05
2023-04-18T13:43:40.051Z,11.95
2023-04-18T13:46:07.087Z,11.70
2023-04-18T13:48:34.084Z,9.60
2023-04-18T13:51:02.446Z,11.55
2023-04-18T13:53:30.846Z,10.77
2023-04-18T13:55:58.208Z,8.95
2023-04-18T13:58:25.748Z,10.10
2023-04-18T14:00:52.841Z,10.30
2023-04-18T14:03:20.465Z,11.80
2023-04-18T14:05:47.536Z,8.50
2023-04-18T14:08:14.774Z,9.70
2023-04-18T14:10:41.913Z,8.60
2023-04-18T14:13:08.911Z,10.30
2023-04-18T14:15:35.867Z,8.50
2023-04-18T14:18:02.809Z,11.43
2023-04-18T14:20:34.446Z,8.40
2023-04-18T14:25:29.558Z,10.05
2023-04-18T14:28:08.751Z,8.63
2023-04-18T14:30:39.368Z,10.13
2023-04-18T14:33:06.569Z,13.30
2023-04-18T14:35:33.624Z,8.57
2023-04-18T14:38:00.637Z,10.55
2023-04-18T14:40:27.836Z,10.45
2023-04-18T14:42:54.765Z,11.35
2023-04-18T14:45:22.141Z,11.00
2023-04-18T14:47:49.167Z,10.02
2023-04-18T14:50:16.191Z,11.65
2023-04-18T14:52:43.274Z,11.25
2023-04-18T14:55:10.869Z,10.13
2023-04-18T14:57:38.156Z,10.85
2023-04-18T15:00:08.174Z,10.10
2023-04-18T15:02:35.219Z,10.63
2023-04-18T15:05:02.584Z,11.32
2023-04-18T15:07:29.589Z,11.00
2023-04-18T15:09:56.489Z,11.23
2023-04-18T15:12:23.402Z,11.90
2023-04-18T15:14:50.387Z,10.77
2023-04-18T15:17:17.381Z,11.30
2023-04-18T15:19:44.409Z,11.73
2023-04-18T15:22:11.786Z,10.93
2023-04-18T15:24:38.675Z,14.63
2023-04-18T15:27:06.197Z,12.40
2023-04-18T15:29:33.283Z,13.43
2023-04-18T15:32:00.420Z,13.45
2023-04-18T15:34:27.479Z,12.45
2023-04-18T15:36:54.383Z,13.88
2023-04-18T15:39:23.574Z,14.63
2023-04-18T15:41:54.560Z,15.98
2023-04-18T15:44:22.127Z,14.50
2023-04-18T15:46:49.448Z,14.02
2023-04-18T15:49:16.585Z,16.25
2023-04-18T15:51:43.602Z,13.70
2023-04-18T15:54:10.751Z,17.85
2023-04-18T15:56:38.029Z,15.23
2023-04-18T15:59:06.137Z,18.02
2023-04-18T16:01:33.478Z,16.77
2023-04-18T16:04:01.120Z,15.48
2023-04-18T16:06:28.250Z,17.88
2023-04-18T16:08:55.382Z,18.63
2023-04-18T16:11:26.207Z,17.80
2023-04-18T16:13:54.698Z,16.83
2023-04-18T16:16:21.843Z,18.50
2023-04-18T16:18:48.882Z,18.70
2023-04-18T16:21:16.240Z,17.67
2023-04-18T16:23:43.618Z,20.30
2023-04-18T16:26:10.741Z,16.67
2023-04-18T16:28:37.781Z,17.92
2023-04-18T16:31:05.663Z,20.30
2023-04-18T16:33:32.666Z,19.45
2023-04-18T16:36:00.569Z,20.20
2023-04-18T16:38:27.550Z,19.10
2023-04-18T16:40:56.647Z,19.05
2023-04-18T16:43:26.804Z,19.90
2023-04-18T16:45:56.506Z,19.10
2023-04-18T16:48:26.849Z,20.40
2023-04-18T16:50:53.774Z,18.83
2023-04-18T16:53:22.032Z,20.30
2023-04-18T16:55:50.467Z,19.73
2023-04-18T16:58:17.514Z,20.27
2023-04-18T17:00:45.104Z,18.90
2023-04-18T17:03:15.020Z,17.95
2023-04-18T17:05:42.505Z,19.15
2023-04-18T17:08:09.850Z,19.80
2023-04-18T17:10:37.557Z,18.52
2023-04-18T17:13:05.079Z,20.00
2023-04-18T17:15:32.243Z,20.02
2023-04-18T17:18:01.377Z,19.40
2023-04-18T17:20:28.498Z,20.95
2023-04-18T17:22:55.740Z,19.83
2023-04-18T17:25:22.723Z,21.33
2023-04-18T17:27:49.694Z,19.85
2023-04-18T17:30:16.794Z,18.45
2023-04-18T17:32:46.139Z,19.65
2023-04-18T17:35:14.735Z,17.85
2023-04-18T17:37:42.794Z,19.15
2023-04-18T17:40:11.538Z,20.45
2023-04-18T17:42:38.853Z,17.83
2023-04-18T17:45:07.044Z,17.77
2023-04-18T17:47:34.421Z,18.00
2023-04-18T17:50:01.498Z,20.73
2023-04-18T17:52:28.662Z,17.77
2023-04-18T17:54:56.460Z,21.20
2023-04-18T17:57:23.650Z,18.88
2023-04-18T17:59:50.640Z,18.63
2023-04-18T18:02:17.778Z,20.40
2023-04-18T18:04:45.143Z,17.50
2023-04-18T18:07:12.241Z,15.98
2023-04-18T18:09:39.290Z,17.17
2023-04-18T18:12:06.549Z,16.27
2023-04-18T18:14:33.536Z,17.65
2023-04-18T18:17:00.814Z,19.08
2023-04-18T18:19:27.818Z,17.60
2023-04-18T18:21:54.783Z,17.98
2023-04-18T18:24:21.690Z,15.48
2023-04-18T18:26:51.479Z,16.15
2023-04-18T18:29:19.414Z,15.70
2023-04-18T18:31:46.510Z,17.00
2023-04-18T18:34:14.018Z,18.75
2023-04-18T18:36:41.087Z,15.77
2023-04-18T18:39:08.555Z,16.85
2023-04-18T18:41:35.667Z,16.73
2023-04-18T18:44:02.723Z,16.85
2023-04-18T18:46:29.711Z,19.23
2023-04-18T18:48:56.832Z,18.77
2023-04-18T18:51:23.861Z,17.33
2023-04-18T18:53:50.844Z,17.00
2023-04-18T18:56:17.906Z,19.85
2023-04-18T18:58:45.000Z,18.17
2023-04-18T19:01:12.154Z,18.60
2023-04-18T19:03:39.632Z,20.35
2023-04-18T19:06:08.472Z,16.58
2023-04-18T19:08:35.857Z,17.98
2023-04-18T19:11:03.009Z,19.20
2023-04-18T19:13:30.080Z,20.75
2023-04-18T19:15:57.220Z,20.05
2023-04-18T19:18:24.402Z,20.33
2023-04-18T19:20:51.499Z,18.02
2023-04-18T19:23:19.509Z,17.00
2023-04-18T19:25:46.913Z,18.70
2023-04-18T19:28:14.612Z,19.38
2023-04-18T19:30:42.502Z,24.63
2023-04-18T19:33:09.829Z,18.15
2023-04-18T19:35:37.919Z,16.05
2023-04-18T19:38:05.217Z,18.50
2023-04-18T19:40:32.870Z,19.58
2023-04-18T19:42:59.986Z,21.55
2023-04-18T19:45:27.055Z,20.05
2023-04-18T19:47:54.102Z,19.83
2023-04-18T19:50:21.540Z,17.42
2023-04-18T19:52:48.437Z,20.77
2023-04-18T19:55:16.267Z,17.52
2023-04-18T19:57:44.070Z,20.38
2023-04-18T20:00:12.704Z,20.23
2023-04-18T20:02:41.009Z,21.55
2023-04-18T20:05:09.185Z,19.02
2023-04-18T20:07:36.323Z,19.55
2023-04-18T20:10:04.546Z,19.52
2023-04-18T20:12:31.796Z,19.70
2023-04-18T20:14:59.036Z,19.20
2023-04-18T20:17:26.244Z,20.50
2023-04-18T20:19:53.597Z,20.85
2023-04-18T20:22:20.805Z,24.05
2023-04-18T20:24:49.381Z,21.95
2023-04-18T20:27:18.883Z,20.30
2023-04-18T20:29:46.901Z,17.75
2023-04-18T20:32:14.002Z,16.55
2023-04-18T20:34:41.096Z,20.27
2023-04-18T20:37:09.464Z,17.60
2023-04-18T20:39:38.153Z,17.80
2023-04-18T20:42:05.333Z,22.38
2023-04-18T20:44:34.770Z,19.02
2023-04-18T20:47:02.358Z,23.65
2023-04-18T20:49:29.930Z,16.27
2023-04-18T20:51:56.913Z,18.73
2023-04-18T20:54:24.099Z,17.65
2023-04-18T20:56:51.097Z,19.63
2023-04-18T20:59:18.914Z,18.77
2023-04-18T21:01:46.982Z,20.20
2023-04-18T21:04:14.536Z,25.92
2023-04-18T21:06:42.773Z,21.25
2023-04-18T21:09:09.710Z,20.90
2023-04-18T21:11:36.619Z,22.10
2023-04-18T21:14:06.656Z,21.70
2023-04-18T21:16:34.011Z,21.95
2023-04-18T21:19:01.348Z,21.52
2023-04-18T21:21:28.880Z,22.05
2023-04-18T21:23:55.917Z,22.65
2023-04-18T21:26:23.032Z,22.30
2023-04-18T21:28:53.414Z,25.20
2023-04-18T21:31:20.672Z,21.60
2023-04-18T21:33:48.277Z,22.08
2023-04-18T21:36:16.534Z,22.20
2023-04-18T21:38:43.639Z,24.20
2023-04-18T21:41:10.566Z,24.50
2023-04-18T21:43:37.516Z,21.05
2023-04-18T21:46:04.563Z,23.95
2023-04-18T21:48:31.637Z,25.83
2023-04-18T21:50:58.637Z,22.50
2023-04-18T21:53:25.611Z,20.88
2023-04-18T21:55:52.833Z,23.38
2023-04-18T21:58:19.814Z,22.33
2023-04-18T22:00:47.058Z,23.52
2023-04-18T22:03:14.224Z,23.75
2023-04-18T22:05:41.272Z,25.92
2023-04-18T22:08:08.250Z,24.77
2023-04-18T22:10:35.271Z,22.95
2023-04-18T22:13:03.324Z,22.70
2023-04-18T22:15:30.295Z,24.48
2023-04-18T22:17:59.201Z,23.20
2023-04-18T22:20:26.895Z,23.13
2023-04-18T22:22:54.276Z,26.67
2023-04-18T22:25:21.505Z,26.63
2023-04-18T22:27:48.447Z,23.42
2023-04-18T22:30:15.546Z,22.67
2023-04-18T22:32:42.665Z,28.27
2023-04-18T22:35:09.873Z,25.55
2023-04-18T22:37:36.854Z,24.52
2023-04-18T22:40:05.304Z,26.95
2023-04-18T22:42:33.738Z,24.48
2023-04-18T22:45:00.823Z,26.33
2023-04-18T22:47:27.930Z,25.13
2023-04-18T22:49:55.018Z,25.00
2023-04-18T22:52:24.875Z,26.20
2023-04-18T22:54:52.361Z,25.85
2023-04-18T22:57:19.315Z,30.55
2023-04-18T22:59:46.242Z,24.63
2023-04-18T23:02:14.108Z,27.67
2023-04-18T23:04:42.331Z,26.20
2023-04-18T23:07:09.516Z,25.70
2023-04-18T23:09:36.470Z,26.05
2023-04-18T23:12:03.751Z,27.30
2023-04-18T23:14:30.739Z,28.08
2023-04-18T23:16:57.724Z,29.70
2023-04-18T23:19:24.697Z,29.65
2023-04-18T23:21:51.994Z,27.52
2023-04-18T23:24:18.991Z,29.30
2023-04-18T23:26:46.628Z,27.83
2023-04-18T23:29:13.535Z,29.30
2023-04-18T23:31:40.947Z,32.25
2023-04-18T23:34:09.217Z,28.92
2023-04-18T23:36:36.959Z,27.02
2023-04-18T23:39:04.339Z,26.50
2023-04-18T23:41:31.404Z,26.23
2023-04-18T23:43:59.394Z,29.38
2023-04-18T23:46:26.769Z,31.77
2023-04-18T23:48:53.845Z,30.05
2023-04-18T23:51:20.780Z,27.90
2023-04-18T23:53:47.728Z,28.42
2023-04-18T23:56:14.724Z,25.65
2023-04-18T23:58:41.733Z,30.88
